首页
METAR-TAF:

METAR-TAF

机场 :

東密德蘭機場

東米德蘭, 英格兰

纬度: 52-50N, 经度: 001-20W, 海拔: 94米

当前天气观测

该预报发布于17分钟前的01:20 UTC
风速7节,风向北转西北
温度 4°C
湿度 100%
气压 1016 hPa
能见度10公里或以上

METAR: EGNX 180120Z AUTO 34007KT 9999 FEW008/// SCT035/// 04/04 Q1016

时间: 01:37 (01:37 UTC)

预报

该预报发布于2小时和36分钟前的23:01 UTC
预报有效从18日的 00点(UTC)到 18日的 24点(UTC)
风速8节,风向北转西北
能见度10公里或以上
少量云层高于900英尺
散云层高于3000英尺
几率 30% :
短暂存在
从 18日的 00点(UTC)到 18日的 09点(UTC)
能見度: 4000
多云层高于900英尺
轻雾
短暂存在
从 18日的 18点(UTC)到 18日的 21点(UTC)
能見度: 7000
短暂存在
从 18日的 21点(UTC)到 18日的 24点(UTC)
能見度: 3000
轻雾, 浅雾
几率 30% :
短暂存在
从 18日的 22点(UTC)到 18日的 24点(UTC)
能見度: 0300
冻雾

TAF: EGNX 172301Z 1800/1824 34008KT 9999 FEW009 SCT030 PROB30 TEMPO 1800/1809 4000 BR BKN009 TEMPO 1818/1821 7000 TEMPO 1821/1824 3000 BR MIFG PROB30 TEMPO 1822/1824 0300 FZFG

超过4000个机场的气象观测和天气预报(METAR&TAF报告)。

可查询的气象台以黄色和红色小点在地图上表示。

将鼠标移到小点上方,可查看气象台名称。

然后点击查看天气观测和预报。

如需切换地图:点击带黑十字的绿色按钮放大地图;点击带横线的绿色按钮缩小地图;或者点击绿色箭头查看邻近地区的地图。


METAR-TAF: